EBCI - Charleroi/Gosselies, Belgium
Distance de la station: NE 18km
Mise à jour: 06/12/2019 13:20
Light drizzle, Pluie, brume, nuageux
Light drizzle, Pluie, brume, nuageux
 Wind from SSO
Vent: SSO 31 km/h
Température: 4°C
Température ressentie: -2°C
Point de rosée: 3°C
Humidité: 93%
Baromètre: 1011 hPa
Résumé: Light drizzle, Pluie, brume
Ciel: nuageux
Visibilité: 4 km
Détails du ciel: nuageux 213 m
nuageux 366 m
2019/12/06 12:20 EBCI 061220Z 20017KT 4000 -DZRA BR BKN007 BKN012 04/03 Q1011 TEMPO 20016G27KT 2000 DZRA BR BKN006
EBFS - Florennes, Belgium
Distance de la station: ESE 31km
Mise à jour: 06/12/2019 13:38
pluie légère, brume, nuageux
pluie légère, brume, nuageux
 Wind from S
Vent: S 30 km/h
Température: 3°C
Température ressentie: -3°C
Point de rosée: 3°C
Humidité: 100%
Baromètre: 1012 hPa
Résumé: pluie légère, brume
Ciel: nuageux
Visibilité: 4 km
Détails du ciel: partiellement nuageux 122 m
nuageux 152 m
nuageux 366 m
2019/12/06 12:38 EBFS 061238Z 18016KT 3500 -RA BR SCT004 BKN005 BKN012 03/03 Q1012 YLO FCST CANCEL
EBCV - Chievres, Belgium
Distance de la station: NO 40km
Mise à jour: 06/12/2019 13:25
Light drizzle, couvert
Light drizzle, couvert
 Wind from SSO
Vent: SSO 35 km/h
Température: 5°C
Température ressentie: -1°C
Point de rosée: 4°C
Humidité: 93%
Baromètre: 1011 hPa
Résumé: Light Drizzle
Ciel: couvert
Visibilité: 8 km
Détails du ciel: couvert 213 m
2019/12/06 12:25 EBCV 061225Z AUTO 20019KT 8000 -DZ OVC007/// 05/04 Q1011 GRN
 
EBBE - Beauvechain, Belgium
Distance de la station: NE 57km
Mise à jour: 06/12/2019 13:33
pluie légère, nuageux
pluie légère, nuageux
 Wind from SSO
Vent: SSO 39 km/h
Température: 5°C
Température ressentie: -1°C
Point de rosée: 4°C
Humidité: 93%
Baromètre: 1010 hPa
Résumé: pluie légère
Ciel: nuageux
Visibilité: 5 km
Détails du ciel: partiellement nuageux 183 m
nuageux 274 m
2019/12/06 12:33 EBBE 061233Z 21021KT 5000 -RA SCT006 BKN009 05/04 Q1010 YLO GRN TEMPO YLO
EBBR - Brussels National, Belgium
Distance de la station: NNE 63km
Mise à jour: 06/12/2019 13:20
pluie légère, nuageux
pluie légère, nuageux
 Wind from SSO
Vent: SSO 31 km/h
Température: 5°C
Température ressentie: 0°C
Point de rosée: 4°C
Humidité: 93%
Baromètre: 1010 hPa
Résumé: pluie légère
Ciel: nuageux
Visibilité: 7 km
Détails du ciel: nuageux 244 m
2019/12/06 12:20 EBBR 061220Z 21017KT 7000 -RA BKN008 05/04 Q1010 RERA TEMPO RA
LFQI - Cambrai/Epinoy, France
Distance de la station: O 82km
Mise à jour: 29/06/2012 12:30
NOT Current

 Wind from SO
Vent: SO 17 km/h
Température: 18°C
Point de rosée: 14°C
Humidité: 78%
Baromètre: 1009 hPa
2012/06/29 10:30 LFQI 291030Z AUTO 22009KT //// // ///////// 18/14 Q1009
 
LFQQ - Lille/Lesquin, France
Distance de la station: ONO 86km
Mise à jour: 06/12/2019 13:30
couvert
couvert
 Wind from S
Vent: S 33 km/h
Température: 7°C
Température ressentie: 3°C
Point de rosée: 6°C
Humidité: 93%
Baromètre: 1009 hPa
Ciel: couvert
Visibilité: 10 km
Détails du ciel: couvert 244 m
2019/12/06 12:30 LFQQ 061230Z AUTO 19018KT 9999 OVC008 07/06 Q1009 TEMPO 19017G27KT 3000 RADZ OVC004
EBLG - Bierset/Liege, Belgium
Distance de la station: ENE 89km
Mise à jour: 06/12/2019 13:20
nuageux
nuageux
 Wind from SSO
Vent: SSO 37 km/h
Température: 5°C
Température ressentie: -1°C
Point de rosée: 3°C
Humidité: 87%
Baromètre: 1011 hPa
Ciel: nuageux
Visibilité: 10 km
Détails du ciel: nuageux 427 m
2019/12/06 12:20 EBLG 061220Z 20020KT 9999 BKN014 05/03 Q1011 TEMPO 21020G30KT 5000 RA BKN007
EBDT - Schaffen, Belgium
Distance de la station: NE 93km
Mise à jour: 06/12/2019 13:25
pluie légère, nuageux
pluie légère, nuageux
 Wind from SSO
Vent: SSO 26 km/h, Rafale: 44 km/h
Température: 6°C
Température ressentie: 2°C
Point de rosée: 5°C
Humidité: 93%
Baromètre: 1010 hPa
Résumé: pluie légère
Ciel: nuageux
Visibilité: 10 km
Détails du ciel: nuageux 274 m
nuageux 335 m
2019/12/06 12:25 EBDT 061225Z AUTO 20014G24KT 9999 -RA BKN009/// BKN011/// 06/05 Q1010 GRN
 
EBAW - Antwerp/Deurne, Belgium
Distance de la station: N 96km
Mise à jour: 06/12/2019 13:20
pluie légère, nuageux
pluie légère, nuageux
 Wind from SSO
Vent: SSO 28 km/h
Température: 6°C
Température ressentie: 2°C
Point de rosée: 5°C
Humidité: 93%
Baromètre: 1009 hPa
Résumé: pluie légère
Ciel: nuageux
Visibilité: 8 km
Détails du ciel: nuageux 213 m
2019/12/06 12:20 EBAW 061220Z 20015KT 170V230 8000 -RA BKN007 06/05 Q1009 TEMPO 21015G25KT
LFAQ - Bray, France
Distance de la station: OSO 119km
Mise à jour: 06/12/2019 13:30
couvert
couvert
 Wind from SSO
Vent: SSO 35 km/h
Température: 6°C
Température ressentie: 1°C
Point de rosée: 5°C
Humidité: 93%
Baromètre: 1011 hPa
Ciel: couvert
Visibilité: 10 km
Détails du ciel: couvert 183 m
2019/12/06 12:30 LFAQ 061230Z AUTO 21019KT 9999 OVC006 06/05 Q1011 TEMPO 2000 RADZ OVC004 BECMG 20017G27KT
LFSR - Reims/Champagne, France
Distance de la station: S 120km
Mise à jour: 16/04/2012 09:00
NOT Current
partiellement nuageux
partiellement nuageux
 Wind from N
Vent: N 17 km/h
Température: 4°C
Température ressentie: 0°C
Point de rosée: 0°C
Humidité: 75%
Baromètre: 1022 hPa
Ciel: partiellement nuageux
Visibilité: 10 km
2012/04/16 07:00 LFSR 160700Z AUTO 01009KT 340V070 9999 NSC 04/00 Q1022
 
EHWO - Woensdrecht, Netherlands
Distance de la station: N 122km
Mise à jour: 06/12/2019 13:38
couvert
couvert
 Wind from SSO
Vent: SSO 24 km/h, Rafale: 43 km/h
Température: 6°C
Température ressentie: 2°C
Point de rosée: 5°C
Humidité: 93%
Baromètre: 1007 hPa
Ciel: couvert
Visibilité: 10 km
Détails du ciel: nuageux 213 m
couvert 244 m
2019/12/06 12:38 EHWO 061238Z AUTO 21013G23KT 170V250 9999 BKN007 OVC008 06/05 Q1007 GRN 21015G25KT 9999 SCT006 BKN008 TEMPO 4000 DZ
EHBK - Zuid-Limburg, Netherlands
Distance de la station: ENE 123km
Mise à jour: 06/12/2019 13:25
couvert
couvert
 Wind from SSO
Vent: SSO 31 km/h
Température: 6°C
Température ressentie: 1°C
Point de rosée: 4°C
Humidité: 87%
Baromètre: 1010 hPa
Ciel: couvert
Visibilité: 10 km
Détails du ciel: couvert 457 m
2019/12/06 12:25 EHBK 061225Z AUTO 21017KT 9999 OVC015 06/04 Q1010 TEMPO 4000 BKN014
EBBL - Kleine-Brogel, Belgium
Distance de la station: NE 124km
Mise à jour: 06/12/2019 13:25
Pluie, nuageux
Pluie, nuageux
 Wind from SSO
Vent: SSO 24 km/h
Température: 5°C
Température ressentie: 1°C
Point de rosée: 5°C
Humidité: 100%
Baromètre: 1009 hPa
Résumé: Pluie
Ciel: nuageux
Visibilité: 3 km
Détails du ciel: quelques nuages 244 m
nuageux 305 m
2019/12/06 12:25 EBBL 061225Z 21013KT 3000 RA FEW008 BKN010 05/05 Q1009 YLO GRN TEMPO YLO
 
EBLB - Elsenborn, Belgium
Distance de la station: E 135km
Mise à jour: 06/12/2019 13:25
Pluie, couvert
Pluie, couvert
 Wind from SSO
Vent: SSO 17 km/h
Température: 2°C
Température ressentie: -2°C
Point de rosée: 2°C
Humidité: 100%
Baromètre: 1011 hPa
Résumé: Pluie
Ciel: couvert
Visibilité: 7 km
Détails du ciel: partiellement nuageux 152 m
couvert 671 m
2019/12/06 12:25 EBLB 061225Z AUTO 21009KT 7000 RA SCT005/// OVC022/// 02/02 Q1011 YLO
EBOS - Oostende Airport, Belgium
Distance de la station: NO 136km
Mise à jour: 06/12/2019 13:20
nuageux
nuageux
 Wind from SSO
Vent: SSO 31 km/h
Température: 8°C
Température ressentie: 3°C
Point de rosée: 7°C
Humidité: 93%
Baromètre: 1007 hPa
Ciel: nuageux
Visibilité: 8 km
Détails du ciel: quelques nuages 183 m
nuageux 244 m
nuageux 366 m
2019/12/06 12:20 EBOS 061220Z 20017KT 8000 FEW006 BKN008 BKN012 08/07 Q1007 TEMPO 20017G27KT 4000 -DZ
EBFN - Koksijde, Belgium
Distance de la station: NO 140km
Mise à jour: 06/12/2019 13:25
nuageux
nuageux
 Wind from SSO
Vent: SSO 35 km/h
Température: 9°C
Température ressentie: 5°C
Point de rosée: 8°C
Humidité: 94%
Baromètre: 1007 hPa
Ciel: nuageux
Visibilité: 10 km
Détails du ciel: partiellement nuageux 335 m
nuageux 396 m
2019/12/06 12:25 EBFN 061225Z 21019KT 9999 SCT011 BKN013 09/08 Q1007 GRN GRN TEMPO YLO
 
ETNG - Geilenkirchen, Germany
Distance de la station: ENE 142km
Mise à jour: 06/12/2019 12:50
pluie légère, nuageux
pluie légère, nuageux
 Wind from SO
Vent: SO 22 km/h, Rafale: 48 km/h
Température: 6°C
Température ressentie: 2°C
Point de rosée: 4°C
Humidité: 87%
Baromètre: 1010 hPa
Résumé: pluie légère
Ciel: nuageux
Visibilité: 9 km
Détails du ciel: quelques nuages 457 m
nuageux 549 m
2019/12/06 11:50 ETNG 061150Z 22012G26KT 9000 -RA FEW015 BKN018 06/04 Q1010 NOSIG
EHGR - Gilze-Rijen, Netherlands
Distance de la station: NNE 143km
Mise à jour: 06/12/2019 13:37
Drizzle, couvert
Drizzle, couvert
 Wind from SSO
Vent: SSO 24 km/h
Température: 6°C
Température ressentie: 2°C
Point de rosée: 5°C
Humidité: 93%
Baromètre: 1007 hPa
Résumé: Drizzle
Ciel: couvert
Visibilité: 8 km
Détails du ciel: nuageux 183 m
couvert 244 m
2019/12/06 12:37 EHGR 061237Z AUTO 21013KT 150V260 8000 DZ BKN006 OVC008 06/05 Q1007 YLO 21015G25KT 7000 RA DZ BKN007 OVC010 TEMPO 3500 DZRA SCT005 BKN007
EHEH - Eindhoven, Netherlands
Distance de la station: NNE 147km
Mise à jour: 06/12/2019 13:34
Heavy drizzle, Pluie, couvert
Heavy drizzle, Pluie, couvert
 Wind from SSO
Vent: SSO 31 km/h
Température: 6°C
Température ressentie: 1°C
Point de rosée: 5°C
Humidité: 93%
Baromètre: 1008 hPa
Résumé: Heavy drizzle, Pluie
Ciel: couvert
Visibilité: 9 km
Détails du ciel: partiellement nuageux 213 m
nuageux 244 m
couvert 274 m
2019/12/06 12:34 EHEH 061234Z AUTO 20017KT 180V240 9000 +DZRA SCT007 BKN008 OVC009 06/05 Q1008 GRN 21015KT 8000 -RADZ FEW007 BKN010 OVC012 TEMPO 21016G26KT 4500 DZRA SCT006 BKN007 OVC009
 
ELLX - Luxembourg, Luxembourg
Distance de la station: ESE 162km
Mise à jour: 06/12/2019 13:20
pluie légère, brouillard, couvert
pluie légère, brouillard, couvert
 Wind from S
Vent: S 19 km/h
Température: 2°C
Température ressentie: -2°C
Point de rosée: 2°C
Humidité: 100%
Baromètre: 1015 hPa
Résumé: pluie légère, brouillard
Ciel: couvert
Visibilité: 0 km
Détails du ciel: couvert 61 m
2019/12/06 12:20 ELLX 061220Z 19010KT 0050 R24/0275N -RA FG VV002 02/02 Q1015 TEMPO 2000 RA BR BKN005
EHVK - Volkel, Netherlands
Distance de la station: NE 174km
Mise à jour: 06/12/2019 13:38
pluie légère, Drizzle, couvert
pluie légère, Drizzle, couvert
 Wind from SSO
Vent: SSO 33 km/h
Température: 6°C
Température ressentie: 1°C
Point de rosée: 5°C
Humidité: 93%
Baromètre: 1007 hPa
Résumé: pluie légère, Drizzle
Ciel: couvert
Visibilité: 10 km
Détails du ciel: partiellement nuageux 213 m
couvert 244 m
2019/12/06 12:38 EHVK 061238Z AUTO 21018KT 180V240 9999 -RADZ SCT007/// OVC008/// 06/05 Q1007 GRN 21007KT 1200 BR BKN002 OVC003 RMK TS INFO NOT AVBL
LFOK - Chalons/Vatry, France
Distance de la station: S 174km
Mise à jour: 06/12/2019 13:30
brume, Thunderstorm
brume, Thunderstorm
 Wind from SSO
Vent: SSO 28 km/h
Température: 3°C
Température ressentie: -3°C
Point de rosée: 3°C
Humidité: 100%
Baromètre: 1016 hPa
Résumé: brume
Ciel: Thunderstorm
Visibilité: 3 km
Détails du ciel: couvert 91 m
2019/12/06 12:30 LFOK 061230Z AUTO 20015KT 2900 BR OVC003/// ///TCU 03/03 Q1016 TEMPO 22017G27KT 0900 FG OVC003
Script from Saratoga-Weather.org